Prati Nuovi

LIFM · 皮埃蒙特, 意大利

罗盘
风向 的 Prati Nuovi 4/22
风: 1 kt, 1 beaufort


1 kt
改变
0 ft 1.000 2.000 3.000 4.000 5.000
Cloud Cloud Cloud Cloud Cloud Cloud
BKN 200
METAR LIMF 020650Z VRB01KT 0900 R36/1900N FG BKN002 08/08 Q1008

METAR Prati Nuovi - LIFM

Prati Nuovi是,意大利中的小机场。 该机场位于纬度45,26940和经度7,95139。 该机场有一条跑道: 4/22. 本场的ICAO机场代码为LIFM。 机场在Milano FIR中。

该航空气象观测是针对Turin Airport在2024年3月2日 07:50, 当地时间进行的。

机场观察

可变方向的风很小或没有风。

可见度为900 m。 跑道36的能见度为1.900 m 和 没有趋势。

有碎云在200 ft的高度。 破损或更高的上限为200 ft。

当前天气为多雾路段。 温度和风寒是8 °C。 露点为8 °C,相对湿度为100%。 海平面上的气压为1008 hPa (QNH)。

白天

今天,太阳从07:03升起,在18:16降落。 这适用于Prati Nuovi,世界夏令时可能有所不同。 当地时间与世界标准时间之间的时差为+1 小时。 当前,没有夏令时有效。

公司介绍

我们没有关于这个机场的公司信息。

体会

到Vliegles.nl去找飞行课程,跳伞和其他飞行体验。 浏览页面,了解Prati Nuovi附近所有可用的活动。 你也可以使用搜索功能来寻找你所在地附近的特定飞行课程、跳伞或其他飞行体验。

警示语

跑道36处的能见度为1.900 m 和 没有趋势。

跑道

Id 标题 侧风 逆风 侧风 %
4/22 072°-252° 95 %

逆风成分最大的方向会被突出显示,并用于横风计算。 这并不一定意味着这个方向在使用。

乌云

200 ft BKN 碎云

温度 & 天气

天气 多雾路段
温度 8 °C
露点 8 °C
相对湿度 100%
Kp-index 0 (0-9)

白天

日出
07:04
中午
12:41
日落
18:18 (10:00)

小工具

你想在你的网站上有一个关于Prati Nuovi的当前航空天气(METAR)的小部件吗?

显示HTML代码
?>